Time;durP1;ratioP1;P1;durP2;ratioP2;P2;SDS_P1;SDS_P2;PMS_P1;PMS_P2;Temp;Humidity;BMP_temperature;BMP_pressure;BME280_temperature;BME280_humidity;BME280_pressure;Samples;Min_cycle;Max_cycle;Signal;HPM_P1;HPM_P2
2022/10/18 00:00:14;;;;;;;;;;;;;;;;;;1047678;28;2395;-55
2022/10/18 00:01:04;;;;;;;;;;;;;;;;;;1043951;28;2768;-53
2022/10/18 00:01:42;;;;;;;;;;;;;;;;;;1044923;28;2529;-56
2022/10/18 00:02:12;;;;;;;;;;;;;;;;;;1045132;28;2916;-54
2022/10/18 00:02:42;;;;;;;;;;;;;;;;;;1053518;28;2476;-52
2022/10/18 00:03:13;;;;;;;;;;;;;;;;;;1053342;28;2618;-56
2022/10/18 00:03:43;;;;;;;;;;;;;;;;;;1052548;28;2491;-56
2022/10/18 00:04:14;;;;;;;;;;;;;;;;;;1049416;28;2580;-53
2022/10/18 00:04:45;;;;;;;;;;;;;;;;;;1040074;28;2076;-55
2022/10/18 00:05:15;;;;;;;;;;;;;;;;;;1041595;28;2502;-52
2022/10/18 00:05:46;;;;;;;;;;;;;;;;;;1041883;28;2266;-55
2022/10/18 00:06:17;;;;;;;;;;;;;;;;;;1045611;28;2057;-53
2022/10/18 00:06:48;;;;;;;;;;;;;;;;;;1053677;28;2924;-55
2022/10/18 00:07:18;;;;;;;;;;;;;;;;;;1052680;28;2718;-56
2022/10/18 00:07:48;;;;;;;;;;;;;;;;;;1054444;28;1944;-56
2022/10/18 00:08:19;;;;;;;;;;;;;;;;;;1052540;28;1827;-51
2022/10/18 00:08:49;;;;;;;;;;;;;;;;;;1051986;28;2477;-57
2022/10/18 00:09:20;;;;;;;;;;;;;;;;;;1052844;28;2761;-58
2022/10/18 00:09:51;;;;;;;;;;;;;;;;;;1052205;28;2400;-56
2022/10/18 00:10:23;;;;;;;;;;;;;;;;;;1053460;28;2299;-51
2022/10/18 00:10:54;;;;;;;;;;;;;;;;;;1044298;28;2644;-54
2022/10/18 00:11:24;;;;;;;;;;;;;;;;;;1042404;28;2544;-56
2022/10/18 00:11:55;;;;;;;;;;;;;;;;;;1037288;28;2509;-54
2022/10/18 00:12:26;;;;;;;;;;;;;;;;;;1028546;28;2704;-52
2022/10/18 00:12:56;;;;;;;;;;;;;;;;;;1039048;28;1974;-55
2022/10/18 00:13:27;;;;;;;;;;;;;;;;;;1039888;28;2127;-53
2022/10/18 00:13:58;;;;;;;;;;;;;;;;;;1045097;28;2349;-55
2022/10/18 00:14:29;;;;;;;;;;;;;;;;;;1051722;28;2472;-57
2022/10/18 00:15:00;;;;;;;;;;;;;;;;;;1049675;28;2791;-52
2022/10/18 00:15:31;;;;;;;;;;;;;;;;;;1047766;28;1722;-53
2022/10/18 00:16:02;;;;;;;;;;;;;;;;;;1043395;28;1992;-53
2022/10/18 00:16:32;;;;;;;;;;;;;;;;;;1044570;28;2603;-54
2022/10/18 00:17:03;;;;;;;;;;;;;;;;;;1051124;28;2930;-57
2022/10/18 00:17:34;;;;;;;;;;;;;;;;;;1048488;28;2023;-51
2022/10/18 00:18:05;;;;;;;;;;;;;;;;;;1052360;28;1780;-56
2022/10/18 00:18:35;;;;;;;;;;;;;;;;;;1051389;28;2867;-53
2022/10/18 00:19:05;;;;;;;;;;;;;;;;;;1052835;28;2647;-55
2022/10/18 00:19:36;;;;;;;;;;;;;;;;;;1052321;28;2197;-54
2022/10/18 00:20:06;;;;;;;;;;;;;;;;;;1054195;28;3236;-56
2022/10/18 00:20:36;;;;;;;;;;;;;;;;;;1054933;28;2215;-52
2022/10/18 00:21:11;;;;;;;;;;;;;;;;;;1053181;28;2428;-53
2022/10/18 00:21:41;;;;;;;;;;;;;;;;;;1053048;28;2505;-56
2022/10/18 00:22:12;;;;;;;;;;;;;;;;;;1051963;28;2577;-56
2022/10/18 00:22:42;;;;;;;;;;;;;;;;;;1054819;28;2193;-52
2022/10/18 00:23:12;;;;;;;;;;;;;;;;;;1053167;28;2201;-56
2022/10/18 00:23:43;;;;;;;;;;;;;;;;;;1052089;28;2232;-54
2022/10/18 00:24:14;;;;;;;;;;;;;;;;;;1054198;28;2153;-53
2022/10/18 00:24:44;;;;;;;;;;;;;;;;;;1047693;28;2509;-54
2022/10/18 00:25:15;;;;;;;;;;;;;;;;;;1046529;28;2155;-55
2022/10/18 00:25:45;;;;;;;;;;;;;;;;;;1046077;28;2237;-54
2022/10/18 00:26:20;;;;;;;;;;;;;;;;;;1045546;28;2538;-53
2022/10/18 00:26:50;;;;;;;;;;;;;;;;;;1048878;28;2322;-56
2022/10/18 00:27:20;;;;;;;;;;;;;;;;;;1044397;28;2123;-52
2022/10/18 00:27:51;;;;;;;;;;;;;;;;;;1043627;28;2333;-56
2022/10/18 00:28:22;;;;;;;;;;;;;;;;;;1044861;28;2650;-54
2022/10/18 00:28:58;;;;;;;;;;;;;;;;;;1044171;28;3323;-54
2022/10/18 00:29:28;;;;;;;;;;;;;;;;;;1049898;28;2314;-55
2022/10/18 00:29:59;;;;;;;;;;;;;;;;;;1048245;28;2057;-52
2022/10/18 00:30:29;;;;;;;;;;;;;;;;;;1048658;28;2329;-50
2022/10/18 00:31:09;;;;;;;;;;;;;;;;;;1053801;28;2534;-54
2022/10/18 00:31:40;;;;;;;;;;;;;;;;;;1050546;28;2609;-53
2022/10/18 00:32:11;;;;;;;;;;;;;;;;;;1049335;28;2167;-52
2022/10/18 00:32:41;;;;;;;;;;;;;;;;;;1049491;28;2249;-51
2022/10/18 00:33:12;;;;;;;;;;;;;;;;;;1046322;28;2042;-56
2022/10/18 00:33:43;;;;;;;;;;;;;;;;;;1050237;28;2488;-55
2022/10/18 00:34:14;;;;;;;;;;;;;;;;;;1047009;28;2554;-55
2022/10/18 00:34:45;;;;;;;;;;;;;;;;;;1048207;28;2530;-53
2022/10/18 00:35:15;;;;;;;;;;;;;;;;;;1054239;28;2190;-53
2022/10/18 00:35:46;;;;;;;;;;;;;;;;;;1053061;28;2591;-56
2022/10/18 00:36:16;;;;;;;;;;;;;;;;;;1050803;28;2557;-54
2022/10/18 00:36:46;;;;;;;;;;;;;;;;;;1045101;28;2813;-56
2022/10/18 00:37:17;;;;;;;;;;;;;;;;;;1044969;28;4079;-53
2022/10/18 00:37:53;;;;;;;;;;;;;;;;;;1046014;28;2070;-53
2022/10/18 00:38:24;;;;;;;;;;;;;;;;;;1045459;28;2523;-51
2022/10/18 00:38:54;;;;;;;;;;;;;;;;;;1053778;28;2437;-55
2022/10/18 00:39:24;;;;;;;;;;;;;;;;;;1055019;28;2486;-54
2022/10/18 00:39:55;;;;;;;;;;;;;;;;;;1054843;28;2012;-56
2022/10/18 00:40:26;;;;;;;;;;;;;;;;;;1047263;28;1662;-56
2022/10/18 00:40:57;;;;;;;;;;;;;;;;;;1040005;28;2565;-54
2022/10/18 00:41:29;;;;;;;;;;;;;;;;;;1040136;28;3494;-56
2022/10/18 00:41:59;;;;;;;;;;;;;;;;;;1040977;28;2911;-52
2022/10/18 00:42:31;;;;;;;;;;;;;;;;;;1043603;28;2160;-53
2022/10/18 00:43:02;;;;;;;;;;;;;;;;;;1052627;28;2339;-53
2022/10/18 00:43:49;;;;;;;;;;;;;;;;;;1049584;28;2456;-54
2022/10/18 00:44:23;;;;;;;;;;;;;;;;;;1050975;28;1827;-55
2022/10/18 00:45:04;;;;;;;;;;;;;;;;;;1044539;28;2436;-56
2022/10/18 00:45:34;;;;;;;;;;;;;;;;;;1049844;28;2436;-53
2022/10/18 00:46:04;;;;;;;;;;;;;;;;;;1047800;28;1889;-52
2022/10/18 00:46:36;;;;;;;;;;;;;;;;;;1049595;28;1956;-53
2022/10/18 00:47:08;;;;;;;;;;;;;;;;;;1052010;28;2005;-54
2022/10/18 00:47:38;;;;;;;;;;;;;;;;;;1049167;28;2485;-53
2022/10/18 00:48:10;;;;;;;;;;;;;;;;;;1048833;28;2508;-52
2022/10/18 00:48:40;;;;;;;;;;;;;;;;;;1048696;28;2873;-53
2022/10/18 00:49:13;;;;;;;;;;;;;;;;;;1046749;28;2452;-53
2022/10/18 00:49:45;;;;;;;;;;;;;;;;;;1052564;28;2406;-53
2022/10/18 00:50:15;;;;;;;;;;;;;;;;;;1052934;28;2819;-53
2022/10/18 00:50:46;;;;;;;;;;;;;;;;;;1049596;28;3020;-56
2022/10/18 00:51:17;;;;;;;;;;;;;;;;;;1049373;28;2635;-55
2022/10/18 00:51:57;;;;;;;;;;;;;;;;;;1050715;28;2332;-53
2022/10/18 00:52:31;;;;;;;;;;;;;;;;;;1048590;28;2747;-53
2022/10/18 00:53:04;;;;;;;;;;;;;;;;;;1053699;28;2190;-54
2022/10/18 00:53:35;;;;;;;;;;;;;;;;;;1043468;28;2522;-53
2022/10/18 00:54:05;;;;;;;;;;;;;;;;;;1044011;28;2582;-57
2022/10/18 00:54:37;;;;;;;;;;;;;;;;;;1044991;28;1942;-54
2022/10/18 00:55:08;;;;;;;;;;;;;;;;;;1047271;28;1819;-52
2022/10/18 00:55:39;;;;;;;;;;;;;;;;;;1053609;28;2564;-54
2022/10/18 00:56:09;;;;;;;;;;;;;;;;;;1052470;28;2445;-53
2022/10/18 00:56:40;;;;;;;;;;;;;;;;;;1053146;28;3677;-57
2022/10/18 00:57:12;;;;;;;;;;;;;;;;;;1048541;28;2202;-56
2022/10/18 00:57:42;;;;;;;;;;;;;;;;;;1048908;28;2475;-54
2022/10/18 00:58:15;;;;;;;;;;;;;;;;;;1050018;28;2271;-54
2022/10/18 00:59:02;;;;;;;;;;;;;;;;;;1048972;28;2122;-54
2022/10/18 00:59:33;;;;;;;;;;;;;;;;;;1048069;28;2139;-54
2022/10/18 01:00:08;;;;;;;;;;;;;;;;;;1047796;28;1967;-53
2022/10/18 01:00:39;;;;;;;;;;;;;;;;;;1047585;28;2180;-52
2022/10/18 01:01:09;;;;;;;;;;;;;;;;;;1048210;28;2137;-55
2022/10/18 01:01:40;;;;;;;;;;;;;;;;;;1046428;28;2566;-55
2022/10/18 01:02:13;;;;;;;;;;;;;;;;;;1045041;28;1951;-54
2022/10/18 01:02:44;;;;;;;;;;;;;;;;;;1048746;28;2223;-55
2022/10/18 01:03:14;;;;;;;;;;;;;;;;;;1047241;28;2258;-56
2022/10/18 01:03:45;;;;;;;;;;;;;;;;;;1048118;28;1565;-55
2022/10/18 01:04:17;;;;;;;;;;;;;;;;;;1047502;28;2078;-54
2022/10/18 01:04:48;;;;;;;;;;;;;;;;;;1049312;28;2105;-54
2022/10/18 01:05:19;;;;;;;;;;;;;;;;;;1049559;28;2202;-56
2022/10/18 01:05:49;;;;;;;;;;;;;;;;;;1050417;28;2121;-55
2022/10/18 01:06:21;;;;;;;;;;;;;;;;;;1048148;28;2070;-54
2022/10/18 01:07:07;;;;;;;;;;;;;;;;;;1045452;28;1863;-53
2022/10/18 01:07:48;;;;;;;;;;;;;;;;;;1042587;28;1856;-54
2022/10/18 01:08:31;;;;;;;;;;;;;;;;;;1043388;28;2026;-54
2022/10/18 01:09:16;;;;;;;;;;;;;;;;;;1049530;28;2873;-53
2022/10/18 01:10:06;;;;;;;;;;;;;;;;;;1045843;28;1731;-54
2022/10/18 01:10:37;;;;;;;;;;;;;;;;;;1036776;28;2755;-53
2022/10/18 01:11:37;;;;;;;;;;;;;;;;;;1034011;28;2171;-54
2022/10/18 01:12:14;;;;;;;;;;;;;;;;;;1025015;28;2469;-56
2022/10/18 01:12:53;;;;;;;;;;;;;;;;;;1024229;28;2100;-54
2022/10/18 01:13:30;;;;;;;;;;;;;;;;;;1024461;28;2168;-55
2022/10/18 01:14:19;;;;;;;;;;;;;;;;;;1028803;28;2633;-53
2022/10/18 01:15:02;;;;;;;;;;;;;;;;;;1039898;28;2437;-52
2022/10/18 01:15:43;;;;;;;;;;;;;;;;;;1050003;28;2170;-55
2022/10/18 01:16:19;;;;;;;;;;;;;;;;;;1049293;28;2509;-51
2022/10/18 01:16:54;;;;;;;;;;;;;;;;;;1049055;28;2153;-53
2022/10/18 01:17:32;;;;;;;;;;;;;;;;;;1048821;28;1601;-54
2022/10/18 01:18:02;;;;;;;;;;;;;;;;;;1047145;28;3196;-54
2022/10/18 01:18:36;;;;;;;;;;;;;;;;;;1051394;28;1434;-52
2022/10/18 01:19:10;;;;;;;;;;;;;;;;;;1044114;28;2104;-56
2022/10/18 01:19:57;;;;;;;;;;;;;;;;;;1043281;28;1603;-54
2022/10/18 01:20:46;;;;;;;;;;;;;;;;;;1043900;28;2527;-55
2022/10/18 01:21:23;;;;;;;;;;;;;;;;;;1047538;28;2235;-56
2022/10/18 01:22:00;;;;;;;;;;;;;;;;;;1048459;28;1935;-54
2022/10/18 01:22:36;;;;;;;;;;;;;;;;;;1048905;28;2039;-55
2022/10/18 01:23:13;;;;;;;;;;;;;;;;;;1047510;28;2360;-56
2022/10/18 01:23:59;;;;;;;;;;;;;;;;;;1047516;28;1893;-52
2022/10/18 01:24:48;;;;;;;;;;;;;;;;;;1048698;28;2581;-53
2022/10/18 01:25:35;;;;;;;;;;;;;;;;;;1049372;28;2640;-52
2022/10/18 01:26:28;;;;;;;;;;;;;;;;;;1049958;28;2477;-53
2022/10/18 01:27:04;;;;;;;;;;;;;;;;;;1048947;28;2499;-55
2022/10/18 01:27:40;;;;;;;;;;;;;;;;;;1048293;28;2534;-52
2022/10/18 01:28:14;;;;;;;;;;;;;;;;;;1050072;28;2617;-54
2022/10/18 01:29:02;;;;;;;;;;;;;;;;;;1048145;28;1949;-55
2022/10/18 01:29:44;;;;;;;;;;;;;;;;;;1048167;28;2466;-52
2022/10/18 01:30:28;;;;;;;;;;;;;;;;;;1049157;28;2057;-57
2022/10/18 01:31:01;;;;;;;;;;;;;;;;;;1043279;28;2539;-55
2022/10/18 01:31:38;;;;;;;;;;;;;;;;;;1045265;28;2280;-56
2022/10/18 01:32:13;;;;;;;;;;;;;;;;;;1047760;28;2049;-52
2022/10/18 01:32:46;;;;;;;;;;;;;;;;;;1047266;28;1930;-53
2022/10/18 01:33:21;;;;;;;;;;;;;;;;;;1047731;28;2585;-55
2022/10/18 01:34:00;;;;;;;;;;;;;;;;;;1051424;28;1712;-54
2022/10/18 01:34:33;;;;;;;;;;;;;;;;;;1049315;28;2144;-54
2022/10/18 01:35:06;;;;;;;;;;;;;;;;;;1048207;28;2065;-55
2022/10/18 01:35:38;;;;;;;;;;;;;;;;;;1050036;28;2613;-53
2022/10/18 01:36:13;;;;;;;;;;;;;;;;;;1049103;28;1891;-54
2022/10/18 01:36:48;;;;;;;;;;;;;;;;;;1049653;28;2740;-54
2022/10/18 01:37:21;;;;;;;;;;;;;;;;;;1044490;28;1812;-52
2022/10/18 01:37:54;;;;;;;;;;;;;;;;;;1044540;28;2091;-54
2022/10/18 01:38:25;;;;;;;;;;;;;;;;;;1045470;28;2081;-53
2022/10/18 01:38:57;;;;;;;;;;;;;;;;;;1043468;28;2213;-56
2022/10/18 01:39:30;;;;;;;;;;;;;;;;;;1043951;28;2880;-52
2022/10/18 01:40:02;;;;;;;;;;;;;;;;;;1048846;28;2617;-54
2022/10/18 01:40:34;;;;;;;;;;;;;;;;;;1047058;28;2144;-54
2022/10/18 01:41:05;;;;;;;;;;;;;;;;;;1047930;28;2154;-56
2022/10/18 01:41:37;;;;;;;;;;;;;;;;;;1046537;28;2618;-55
2022/10/18 01:42:09;;;;;;;;;;;;;;;;;;1049588;28;2769;-53
2022/10/18 01:42:39;;;;;;;;;;;;;;;;;;1048290;28;2879;-53
2022/10/18 01:43:10;;;;;;;;;;;;;;;;;;1049166;28;2092;-57
2022/10/18 01:43:42;;;;;;;;;;;;;;;;;;1049597;28;2338;-55
2022/10/18 01:44:15;;;;;;;;;;;;;;;;;;1048089;28;3007;-54
2022/10/18 01:44:46;;;;;;;;;;;;;;;;;;1047517;28;2977;-54
2022/10/18 01:45:17;;;;;;;;;;;;;;;;;;1050273;28;2428;-55
2022/10/18 01:45:48;;;;;;;;;;;;;;;;;;1050068;28;2597;-53
2022/10/18 01:46:21;;;;;;;;;;;;;;;;;;1048082;28;1836;-55
2022/10/18 01:46:53;;;;;;;;;;;;;;;;;;1044639;28;2312;-55
2022/10/18 01:47:24;;;;;;;;;;;;;;;;;;1049814;28;2215;-52
2022/10/18 01:47:54;;;;;;;;;;;;;;;;;;1048386;28;2326;-51
2022/10/18 01:48:24;;;;;;;;;;;;;;;;;;1050926;28;2173;-55
2022/10/18 01:48:55;;;;;;;;;;;;;;;;;;1049010;28;2351;-54
2022/10/18 01:49:26;;;;;;;;;;;;;;;;;;1048826;28;2651;-56
2022/10/18 01:50:01;;;;;;;;;;;;;;;;;;1048811;28;2695;-51
2022/10/18 01:50:32;;;;;;;;;;;;;;;;;;1049349;28;2563;-55
2022/10/18 01:51:03;;;;;;;;;;;;;;;;;;1047858;28;2642;-54
2022/10/18 01:51:34;;;;;;;;;;;;;;;;;;1049600;28;2578;-52
2022/10/18 01:52:04;;;;;;;;;;;;;;;;;;1049796;28;2532;-54
2022/10/18 01:52:35;;;;;;;;;;;;;;;;;;1047078;28;2561;-55
2022/10/18 01:53:05;;;;;;;;;;;;;;;;;;1048733;28;2544;-53
2022/10/18 01:53:36;;;;;;;;;;;;;;;;;;1046771;28;2468;-55
2022/10/18 01:54:08;;;;;;;;;;;;;;;;;;1049871;28;2546;-53
2022/10/18 01:54:39;;;;;;;;;;;;;;;;;;1052137;28;2292;-56
2022/10/18 01:55:10;;;;;;;;;;;;;;;;;;1049775;28;2573;-55
2022/10/18 01:55:44;;;;;;;;;;;;;;;;;;1045230;28;2415;-56
2022/10/18 01:56:21;;;;;;;;;;;;;;;;;;1039580;28;2345;-53
2022/10/18 01:56:56;;;;;;;;;;;;;;;;;;1039088;28;2606;-55
2022/10/18 01:57:40;;;;;;;;;;;;;;;;;;1036334;28;3128;-56
2022/10/18 01:58:19;;;;;;;;;;;;;;;;;;1044204;28;2566;-55
2022/10/18 01:59:21;;;;;;;;;;;;;;;;;;1042515;28;2481;-55
2022/10/18 02:00:00;;;;;;;;;;;;;;;;;;1048232;28;2174;-56
2022/10/18 02:00:36;;;;;;;;;;;;;;;;;;1047060;28;2395;-56
2022/10/18 02:01:18;;;;;;;;;;;;;;;;;;1047582;28;2067;-54
2022/10/18 02:02:04;;;;;;;;;;;;;;;;;;1048610;28;2208;-55
2022/10/18 02:02:39;;;;;;;;;;;;;;;;;;1047756;28;2018;-51
2022/10/18 02:03:15;;;;;;;;;;;;;;;;;;1048950;28;2026;-53
2022/10/18 02:03:47;;;;;;;;;;;;;;;;;;1049733;28;2655;-56
2022/10/18 02:04:18;;;;;;;;;;;;;;;;;;1043976;28;2318;-51
2022/10/18 02:04:57;;;;;;;;;;;;;;;;;;1043127;28;2183;-54
2022/10/18 02:05:28;;;;;;;;;;;;;;;;;;1045757;28;2480;-55
2022/10/18 02:06:06;;;;;;;;;;;;;;;;;;1046629;28;2596;-53
2022/10/18 02:06:41;;;;;;;;;;;;;;;;;;1046889;28;2255;-52
2022/10/18 02:07:21;;;;;;;;;;;;;;;;;;1046485;28;2506;-56
2022/10/18 02:07:54;;;;;;;;;;;;;;;;;;1045217;28;2724;-54
2022/10/18 02:08:31;;;;;;;;;;;;;;;;;;1042287;28;2888;-55
2022/10/18 02:09:06;;;;;;;;;;;;;;;;;;1039599;28;2607;-55
2022/10/18 02:09:40;;;;;;;;;;;;;;;;;;1041960;28;2079;-55
2022/10/18 02:10:15;;;;;;;;;;;;;;;;;;1047445;28;2131;-53
2022/10/18 02:10:48;;;;;;;;;;;;;;;;;;1045066;28;2698;-56
2022/10/18 02:11:19;;;;;;;;;;;;;;;;;;1048687;28;2431;-54
2022/10/18 02:11:53;;;;;;;;;;;;;;;;;;1049730;28;2123;-50
2022/10/18 02:12:24;;;;;;;;;;;;;;;;;;1048603;28;2565;-55
2022/10/18 02:12:56;;;;;;;;;;;;;;;;;;1045035;28;2603;-55
2022/10/18 02:13:30;;;;;;;;;;;;;;;;;;1046034;28;2893;-55
2022/10/18 02:14:05;;;;;;;;;;;;;;;;;;1045777;28;3278;-57
2022/10/18 02:14:37;;;;;;;;;;;;;;;;;;1045938;28;2470;-55
2022/10/18 02:15:16;;;;;;;;;;;;;;;;;;1048957;28;2523;-52
2022/10/18 02:15:48;;;;;;;;;;;;;;;;;;1049668;28;2564;-51
2022/10/18 02:16:20;;;;;;;;;;;;;;;;;;1049451;28;2499;-54
2022/10/18 02:16:52;;;;;;;;;;;;;;;;;;1047935;28;2149;-51
2022/10/18 02:17:25;;;;;;;;;;;;;;;;;;1047241;28;2085;-56
2022/10/18 02:17:56;;;;;;;;;;;;;;;;;;1047347;28;2660;-53
2022/10/18 02:18:29;;;;;;;;;;;;;;;;;;1048200;28;2504;-53
2022/10/18 02:19:02;;;;;;;;;;;;;;;;;;1048858;28;1819;-52
2022/10/18 02:19:39;;;;;;;;;;;;;;;;;;1047820;28;2604;-54
2022/10/18 02:20:10;;;;;;;;;;;;;;;;;;1047606;28;2690;-55
2022/10/18 02:20:41;;;;;;;;;;;;;;;;;;1049903;28;2413;-56
2022/10/18 02:21:14;;;;;;;;;;;;;;;;;;1044030;28;2007;-56
2022/10/18 02:21:46;;;;;;;;;;;;;;;;;;1044662;28;2014;-53
2022/10/18 02:22:18;;;;;;;;;;;;;;;;;;1040379;28;1770;-53
2022/10/18 02:22:49;;;;;;;;;;;;;;;;;;1038078;28;2531;-53
2022/10/18 02:23:21;;;;;;;;;;;;;;;;;;1041665;28;2839;-56
2022/10/18 02:23:53;;;;;;;;;;;;;;;;;;1033511;28;2144;-53
2022/10/18 02:24:29;;;;;;;;;;;;;;;;;;1030504;28;2052;-54
2022/10/18 02:25:02;;;;;;;;;;;;;;;;;;1034879;28;2309;-54
2022/10/18 02:25:33;;;;;;;;;;;;;;;;;;1037464;28;2542;-54
2022/10/18 02:26:04;;;;;;;;;;;;;;;;;;1042388;28;2485;-55
2022/10/18 02:26:34;;;;;;;;;;;;;;;;;;1047821;28;2579;-55
2022/10/18 02:27:06;;;;;;;;;;;;;;;;;;1048659;28;2573;-55
2022/10/18 02:27:37;;;;;;;;;;;;;;;;;;1046709;28;1806;-52
2022/10/18 02:28:08;;;;;;;;;;;;;;;;;;1047244;28;2489;-56
2022/10/18 02:28:39;;;;;;;;;;;;;;;;;;1047411;28;2420;-54
2022/10/18 02:29:10;;;;;;;;;;;;;;;;;;1048181;28;2416;-57
2022/10/18 02:29:41;;;;;;;;;;;;;;;;;;1048251;28;1446;-54
2022/10/18 02:30:14;;;;;;;;;;;;;;;;;;1048663;28;2176;-54
2022/10/18 02:30:54;;;;;;;;;;;;;;;;;;1049771;28;2324;-53
2022/10/18 02:31:26;;;;;;;;;;;;;;;;;;1047309;28;2053;-54
2022/10/18 02:32:04;;;;;;;;;;;;;;;;;;1047798;28;3060;-51
2022/10/18 02:32:53;;;;;;;;;;;;;;;;;;1047424;28;2033;-56
2022/10/18 02:33:42;;;;;;;;;;;;;;;;;;1047944;28;2225;-52
2022/10/18 02:34:16;;;;;;;;;;;;;;;;;;1048550;28;2659;-54
2022/10/18 02:34:57;;;;;;;;;;;;;;;;;;1047302;28;2844;-53
2022/10/18 02:35:29;;;;;;;;;;;;;;;;;;1048192;28;2784;-54
2022/10/18 02:36:04;;;;;;;;;;;;;;;;;;1050297;28;2135;-54
2022/10/18 02:36:41;;;;;;;;;;;;;;;;;;1052705;28;2072;-52
2022/10/18 02:37:12;;;;;;;;;;;;;;;;;;1052082;28;2537;-53
2022/10/18 02:37:44;;;;;;;;;;;;;;;;;;1049287;28;1665;-54
2022/10/18 02:38:14;;;;;;;;;;;;;;;;;;1048592;28;2498;-55
2022/10/18 02:38:46;;;;;;;;;;;;;;;;;;1049150;28;2892;-52
2022/10/18 02:39:25;;;;;;;;;;;;;;;;;;1048932;28;2529;-56
2022/10/18 02:39:56;;;;;;;;;;;;;;;;;;1048725;28;2615;-56
2022/10/18 02:40:27;;;;;;;;;;;;;;;;;;1048473;28;2552;-53
2022/10/18 02:40:57;;;;;;;;;;;;;;;;;;1047389;28;1814;-54
2022/10/18 02:41:29;;;;;;;;;;;;;;;;;;1048554;28;2060;-53
2022/10/18 02:42:00;;;;;;;;;;;;;;;;;;1047064;28;2597;-53
2022/10/18 02:42:37;;;;;;;;;;;;;;;;;;1048069;28;2461;-52
2022/10/18 02:43:07;;;;;;;;;;;;;;;;;;1047427;28;1011;-56
2022/10/18 02:43:38;;;;;;;;;;;;;;;;;;1046933;28;2064;-55
2022/10/18 02:44:09;;;;;;;;;;;;;;;;;;1047949;28;2713;-57
2022/10/18 02:44:41;;;;;;;;;;;;;;;;;;1049545;28;2142;-55
2022/10/18 02:45:12;;;;;;;;;;;;;;;;;;1048888;28;1649;-56
2022/10/18 02:45:42;;;;;;;;;;;;;;;;;;1050417;28;2120;-55
2022/10/18 02:46:13;;;;;;;;;;;;;;;;;;1050162;28;2682;-55
2022/10/18 02:46:45;;;;;;;;;;;;;;;;;;1047874;28;2396;-55
2022/10/18 02:47:16;;;;;;;;;;;;;;;;;;1050234;28;2748;-52
2022/10/18 02:47:46;;;;;;;;;;;;;;;;;;1043170;28;2876;-54
2022/10/18 02:48:17;;;;;;;;;;;;;;;;;;1045858;28;2508;-54
2022/10/18 02:48:47;;;;;;;;;;;;;;;;;;1045320;28;2109;-55
2022/10/18 02:49:18;;;;;;;;;;;;;;;;;;1048546;28;2592;-57
2022/10/18 02:49:49;;;;;;;;;;;;;;;;;;1049533;28;1815;-56
2022/10/18 02:50:20;;;;;;;;;;;;;;;;;;1046574;28;1687;-52
2022/10/18 02:50:50;;;;;;;;;;;;;;;;;;1047635;28;2490;-56
2022/10/18 02:51:20;;;;;;;;;;;;;;;;;;1047508;28;2577;-55
2022/10/18 02:51:51;;;;;;;;;;;;;;;;;;1050521;28;2774;-55
2022/10/18 02:52:22;;;;;;;;;;;;;;;;;;1045736;28;2139;-55
2022/10/18 02:52:52;;;;;;;;;;;;;;;;;;1043953;28;1972;-51
2022/10/18 02:53:22;;;;;;;;;;;;;;;;;;1043860;28;2570;-54
2022/10/18 02:53:56;;;;;;;;;;;;;;;;;;1038925;28;2430;-56
2022/10/18 02:54:27;;;;;;;;;;;;;;;;;;1049499;28;2212;-56
2022/10/18 02:54:57;;;;;;;;;;;;;;;;;;1047041;28;1660;-54
2022/10/18 02:55:28;;;;;;;;;;;;;;;;;;1048791;28;2103;-52
2022/10/18 02:55:58;;;;;;;;;;;;;;;;;;1049247;28;2413;-54
2022/10/18 02:56:28;;;;;;;;;;;;;;;;;;1048314;28;1989;-53
2022/10/18 02:56:59;;;;;;;;;;;;;;;;;;1048214;28;2085;-55
2022/10/18 02:57:30;;;;;;;;;;;;;;;;;;1046723;28;2562;-54
2022/10/18 02:58:01;;;;;;;;;;;;;;;;;;1048838;28;2488;-54
2022/10/18 02:58:45;;;;;;;;;;;;;;;;;;1048593;28;2167;-54
2022/10/18 02:59:23;;;;;;;;;;;;;;;;;;1045670;28;2059;-57
2022/10/18 02:59:53;;;;;;;;;;;;;;;;;;1046803;28;2028;-54
2022/10/18 03:00:24;;;;;;;;;;;;;;;;;;1042656;28;2096;-55
2022/10/18 03:00:55;;;;;;;;;;;;;;;;;;1040803;28;2509;-56
2022/10/18 03:01:25;;;;;;;;;;;;;;;;;;1039760;28;2295;-55
2022/10/18 03:01:55;;;;;;;;;;;;;;;;;;1041688;28;1830;-53
2022/10/18 03:02:25;;;;;;;;;;;;;;;;;;1047000;28;2207;-52
2022/10/18 03:02:56;;;;;;;;;;;;;;;;;;1044455;28;1847;-55
2022/10/18 03:03:27;;;;;;;;;;;;;;;;;;1044997;28;2636;-55
2022/10/18 03:03:57;;;;;;;;;;;;;;;;;;1041604;28;2812;-53
2022/10/18 03:04:28;;;;;;;;;;;;;;;;;;1041732;28;2632;-54
2022/10/18 03:04:58;;;;;;;;;;;;;;;;;;1045772;28;2463;-54
2022/10/18 03:05:28;;;;;;;;;;;;;;;;;;1045088;28;4043;-52
2022/10/18 03:05:58;;;;;;;;;;;;;;;;;;1044680;28;2230;-52
2022/10/18 03:06:29;;;;;;;;;;;;;;;;;;1047100;28;1780;-55
2022/10/18 03:06:59;;;;;;;;;;;;;;;;;;1045845;28;2374;-55
2022/10/18 03:07:31;;;;;;;;;;;;;;;;;;1047219;28;1614;-50
2022/10/18 03:08:02;;;;;;;;;;;;;;;;;;1045673;28;2503;-53
2022/10/18 03:08:32;;;;;;;;;;;;;;;;;;1040834;28;2620;-57
2022/10/18 03:09:08;;;;;;;;;;;;;;;;;;1041903;28;2704;-55
2022/10/18 03:09:40;;;;;;;;;;;;;;;;;;1045554;28;2618;-54
2022/10/18 03:10:10;;;;;;;;;;;;;;;;;;1044906;28;2319;-52
2022/10/18 03:10:45;;;;;;;;;;;;;;;;;;1041214;28;2039;-54
2022/10/18 03:11:16;;;;;;;;;;;;;;;;;;1039873;28;2434;-56
2022/10/18 03:11:46;;;;;;;;;;;;;;;;;;1036693;28;2087;-52
2022/10/18 03:12:16;;;;;;;;;;;;;;;;;;1038270;28;2549;-55
2022/10/18 03:12:47;;;;;;;;;;;;;;;;;;1043242;28;3066;-57
2022/10/18 03:13:17;;;;;;;;;;;;;;;;;;1044387;28;2087;-51
2022/10/18 03:13:49;;;;;;;;;;;;;;;;;;1044942;28;2601;-53
2022/10/18 03:14:20;;;;;;;;;;;;;;;;;;1046329;28;2506;-53
2022/10/18 03:14:50;;;;;;;;;;;;;;;;;;1043629;28;1945;-55
2022/10/18 03:15:20;;;;;;;;;;;;;;;;;;1042286;28;2170;-53
2022/10/18 03:15:50;;;;;;;;;;;;;;;;;;1045563;28;2233;-52
2022/10/18 03:16:21;;;;;;;;;;;;;;;;;;1046205;28;2643;-55
2022/10/18 03:16:51;;;;;;;;;;;;;;;;;;1046541;28;2480;-54
2022/10/18 03:17:21;;;;;;;;;;;;;;;;;;1046824;28;1955;-52
2022/10/18 03:17:52;;;;;;;;;;;;;;;;;;1040802;28;2817;-56
2022/10/18 03:18:22;;;;;;;;;;;;;;;;;;1042144;28;2526;-53
2022/10/18 03:18:53;;;;;;;;;;;;;;;;;;1040669;28;2850;-52
2022/10/18 03:19:23;;;;;;;;;;;;;;;;;;1039131;28;2551;-55
2022/10/18 03:19:53;;;;;;;;;;;;;;;;;;1044293;28;4341;-53
2022/10/18 03:20:24;;;;;;;;;;;;;;;;;;1046919;28;2050;-55
2022/10/18 03:20:54;;;;;;;;;;;;;;;;;;1045578;28;2109;-54
2022/10/18 03:21:24;;;;;;;;;;;;;;;;;;1044024;28;2469;-55
2022/10/18 03:21:54;;;;;;;;;;;;;;;;;;1045012;28;2574;-55
2022/10/18 03:22:26;;;;;;;;;;;;;;;;;;1046087;28;2439;-53
2022/10/18 03:22:57;;;;;;;;;;;;;;;;;;1044278;28;2540;-53
2022/10/18 03:23:27;;;;;;;;;;;;;;;;;;1046495;28;2142;-51
2022/10/18 03:23:58;;;;;;;;;;;;;;;;;;1046001;28;1828;-54
2022/10/18 03:24:29;;;;;;;;;;;;;;;;;;1045699;28;2439;-55
2022/10/18 03:24:59;;;;;;;;;;;;;;;;;;1046025;28;2056;-52
2022/10/18 03:25:30;;;;;;;;;;;;;;;;;;1045664;28;2203;-51
2022/10/18 03:26:00;;;;;;;;;;;;;;;;;;1046813;28;2127;-52
2022/10/18 03:26:30;;;;;;;;;;;;;;;;;;1045260;28;2677;-54
2022/10/18 03:27:01;;;;;;;;;;;;;;;;;;1046149;28;1793;-57
2022/10/18 03:27:31;;;;;;;;;;;;;;;;;;1044334;28;2117;-54
2022/10/18 03:28:01;;;;;;;;;;;;;;;;;;1046222;28;2501;-53
2022/10/18 03:28:32;;;;;;;;;;;;;;;;;;1045780;28;2060;-55
2022/10/18 03:29:02;;;;;;;;;;;;;;;;;;1047106;28;1420;-55
2022/10/18 03:29:32;;;;;;;;;;;;;;;;;;1043866;28;2100;-56
2022/10/18 03:30:04;;;;;;;;;;;;;;;;;;1041715;28;2429;-56
2022/10/18 03:30:35;;;;;;;;;;;;;;;;;;1044357;28;2853;-55
2022/10/18 03:31:05;;;;;;;;;;;;;;;;;;1046363;28;2210;-53
2022/10/18 03:31:35;;;;;;;;;;;;;;;;;;1045757;28;2278;-55
2022/10/18 03:32:05;;;;;;;;;;;;;;;;;;1044533;28;2532;-54
2022/10/18 03:32:36;;;;;;;;;;;;;;;;;;1046465;28;2613;-51
2022/10/18 03:33:07;;;;;;;;;;;;;;;;;;1045510;28;2729;-55
2022/10/18 03:33:37;;;;;;;;;;;;;;;;;;1045061;28;2276;-54
2022/10/18 03:34:07;;;;;;;;;;;;;;;;;;1043937;28;2677;-51
2022/10/18 03:34:38;;;;;;;;;;;;;;;;;;1045937;28;2160;-57
2022/10/18 03:35:08;;;;;;;;;;;;;;;;;;1043680;28;2563;-54
2022/10/18 03:35:38;;;;;;;;;;;;;;;;;;1045419;28;2723;-54
2022/10/18 03:36:09;;;;;;;;;;;;;;;;;;1044106;28;2733;-52
2022/10/18 03:36:40;;;;;;;;;;;;;;;;;;1044357;28;2882;-54
2022/10/18 03:37:10;;;;;;;;;;;;;;;;;;1044096;28;2172;-54
2022/10/18 03:37:48;;;;;;;;;;;;;;;;;;1047488;28;1794;-53
2022/10/18 03:38:18;;;;;;;;;;;;;;;;;;1045091;28;2680;-56
2022/10/18 03:38:48;;;;;;;;;;;;;;;;;;1046332;28;2928;-55
2022/10/18 03:39:18;;;;;;;;;;;;;;;;;;1043722;28;2196;-54
2022/10/18 03:39:48;;;;;;;;;;;;;;;;;;1043438;28;2244;-51
2022/10/18 03:40:19;;;;;;;;;;;;;;;;;;1044994;28;2142;-50
2022/10/18 03:40:49;;;;;;;;;;;;;;;;;;1047664;28;1674;-54
2022/10/18 03:41:20;;;;;;;;;;;;;;;;;;1045451;28;2022;-52
2022/10/18 03:41:50;;;;;;;;;;;;;;;;;;1046833;28;2128;-53
2022/10/18 03:42:20;;;;;;;;;;;;;;;;;;1045708;28;1915;-55
2022/10/18 03:42:50;;;;;;;;;;;;;;;;;;1044879;28;2327;-53
2022/10/18 03:43:21;;;;;;;;;;;;;;;;;;1044378;28;2153;-53
2022/10/18 03:43:51;;;;;;;;;;;;;;;;;;1046561;28;2524;-54
2022/10/18 03:44:22;;;;;;;;;;;;;;;;;;1046213;28;2213;-54
2022/10/18 03:44:52;;;;;;;;;;;;;;;;;;1046516;28;2030;-54
2022/10/18 03:45:24;;;;;;;;;;;;;;;;;;1045653;28;2651;-54
2022/10/18 03:45:54;;;;;;;;;;;;;;;;;;1047582;28;2420;-52
2022/10/18 03:46:24;;;;;;;;;;;;;;;;;;1046334;28;2103;-56
2022/10/18 03:46:54;;;;;;;;;;;;;;;;;;1044766;28;2580;-55
2022/10/18 03:47:25;;;;;;;;;;;;;;;;;;1048305;28;1359;-55
2022/10/18 03:47:55;;;;;;;;;;;;;;;;;;1045911;28;2081;-54
2022/10/18 03:48:25;;;;;;;;;;;;;;;;;;1045788;28;2525;-54